Tropical Cyclones
[Index]
Main Index Home Page Stock Weather Photos Extreme Storms Discussion Storm News and Storm Chasing Reports Tropical Cyclones / Hurricanes / Typhoons Weather Data and Links Wild Fires / Bushfires Weather Observation Techniques Weather Picture Catalogue Tornado Pictures and Reports Stock Video Footage and DVDs for sale
Season 2010-2011 Tropical Cyclone BINGIZA Track Map
Season 2010-2011 Summaries: [BoM-AU] [JTWC-AU] [JTWC-SIO] [JTWC-SPAC] [JTWC-SH]
<<- Previous TC | JTWC 2010-2011 Season | Next TC ->>

click for intensity scale information  Lat/long Grid: Show Hide

 Date Labels: Show Hide

Joint Typhoon Warning Centre Cyclone Data

Name: BINGIZA

08 Feb 2011 12:00 UTC to 18 Feb 2011 00:00 UTC

    date/time    lat    long     hPa   cat  kts
2011-02-08 12   12.9    58.0    1007         20          
2011-02-08 18   13.7    57.4    1007         20          
2011-02-09 00   13.6    56.4    1004         25          
2011-02-09 06   13.7    55.7    1000         30          
2011-02-09 12   13.7    55.1     996         35          
2011-02-09 18   13.7    54.8     993    1    40          
2011-02-10 00   13.7    54.5     989    1    45          
2011-02-10 06   13.7    54.2     989    1    45          
2011-02-10 12   13.8    54.0     989    1    45          
2011-02-10 18   13.9    53.8     989    1    45          
2011-02-11 00   14.1    53.7     989    1    45          
2011-02-11 06   14.3    53.7     989    1    45          
2011-02-11 12   14.6    53.7     989    1    45          
2011-02-11 18   14.9    53.8     985    1    50          
2011-02-12 00   15.2    53.8     982    2    55          
2011-02-12 06   15.4    53.7     978    2    60          
2011-02-12 06   15.4    53.7     978    2    60          
2011-02-12 12   15.5    53.6     963    3    80          
2011-02-12 12   15.5    53.6     963    3    80          
2011-02-12 12   15.5    53.6     963    3    80          
2011-02-12 18   15.6    53.4     956    3    90          
2011-02-12 18   15.6    53.4     956    3    90          
2011-02-12 18   15.6    53.4     956    3    90          
2011-02-13 00   15.7    53.0     952    3    95          
2011-02-13 00   15.7    53.0     952    3    95          
2011-02-13 00   15.7    53.0     952    3    95          
2011-02-13 06   15.7    52.6     948    4   100          
2011-02-13 06   15.7    52.6     948    4   100          
2011-02-13 06   15.7    52.6     948    4   100          
2011-02-13 12   15.8    52.1     948    4   100          
2011-02-13 12   15.8    52.1     948    4   100          
2011-02-13 12   15.8    52.1     948    4   100          
2011-02-13 18   16.0    51.5     948    4   100          
2011-02-13 18   16.0    51.5     948    4   100          
2011-02-13 18   16.0    51.5     948    4   100          
2011-02-14 00   16.0    50.5     952    3    95          
2011-02-14 00   16.0    50.5     952    3    95          
2011-02-14 00   16.0    50.5     952    3    95          
2011-02-14 06   15.9    49.7     959    3    85          
2011-02-14 06   15.9    49.7     959    3    85          
2011-02-14 06   15.9    49.7     959    3    85          
2011-02-14 12   15.9    48.8     970    2    70          
2011-02-14 12   15.9    48.8     970    2    70          
2011-02-14 12   15.9    48.8     970    2    70          
2011-02-14 18   16.0    47.7     982    2    55          
2011-02-14 18   16.0    47.7     982    2    55          
2011-02-15 00   16.3    46.0     993    1    40          
2011-02-15 06   16.2    45.4     996         35          
2011-02-15 12   16.7    45.2    1000         30          
2011-02-15 18   16.6    44.5    1000         30          
2011-02-16 00   16.9    43.9    1000         30          
2011-02-16 06   17.7    43.8    1000         30          
2011-02-16 12   18.7    44.1    1000         30          
2011-02-16 18   19.6    43.9     996         35          
2011-02-17 00   20.1    43.8     996         35          
2011-02-17 06   20.6    43.7     993    1    40          
2011-02-17 12   20.8    43.9     993    1    40          
2011-02-17 18   21.1    44.5     996         35          
2011-02-18 00   21.4    45.3    1000         30          
Winds are 1-min average.

Tropical cyclone tracks developed by Michael Bath using data from the Joint Typhoon Warning Centre Best Tracks and Google Maps.


[Australian Severe Weather index] [Copyright Notice] [Email Contacts] [Search This Site] [Privacy Policy]
Document: tropical_cyclone_bingiza.htm Updated: 28 June 2017